Time;durP1;ratioP1;P1;durP2;ratioP2;P2;SDS_P1;SDS_P2;PMS_P1;PMS_P2;Temp;Humidity;BMP_temperature;BMP_pressure;BME280_temperature;BME280_humidity;BME280_pressure;Samples;Min_cycle;Max_cycle;Signal;HPM_P1;HPM_P2
2023/03/06 00:02:15;;;;;;;8.20;3.60;;;3.70;73.10;;;;;;5014268;28;20026;-80
2023/03/06 00:04:40;;;;;;;7.35;4.10;;;3.70;73.10;;;;;;4980047;28;20040;-79
2023/03/06 00:07:06;;;;;;;8.27;3.53;;;3.70;73.10;;;;;;5016968;28;20116;-79
2023/03/06 00:09:31;;;;;;;5.95;3.50;;;3.70;73.10;;;;;;5011715;28;20116;-78
2023/03/06 00:11:57;;;;;;;4.85;2.92;;;3.60;73.10;;;;;;4978320;28;20038;-78
2023/03/06 00:14:22;;;;;;;7.97;3.72;;;3.60;73.10;;;;;;4970810;28;20026;-81
2023/03/06 00:16:48;;;;;;;7.40;3.65;;;3.60;73.20;;;;;;4983239;28;20099;-81
2023/03/06 00:19:13;;;;;;;7.90;4.22;;;3.60;73.20;;;;;;5013959;28;20052;-78
2023/03/06 00:21:40;;;;;;;7.50;3.20;;;3.60;73.20;;;;;;5014290;28;20037;-79
2023/03/06 00:24:05;;;;;;;9.70;3.38;;;3.60;73.20;;;;;;5031676;28;20541;-80
2023/03/06 00:26:32;;;;;;;5.72;2.92;;;3.60;73.30;;;;;;5021601;28;20040;-80
2023/03/06 00:28:58;;;;;;;7.90;3.55;;;3.60;73.40;;;;;;5046835;28;20026;-80
2023/03/06 00:31:23;;;;;;;7.97;3.53;;;3.60;73.40;;;;;;5030442;28;20041;-79
2023/03/06 00:33:49;;;;;;;6.38;3.00;;;3.60;73.50;;;;;;5030053;28;20130;-79
2023/03/06 00:36:14;;;;;;;8.73;3.40;;;3.60;73.50;;;;;;5003702;28;20056;-80
2023/03/06 00:38:40;;;;;;;6.28;2.90;;;3.60;73.50;;;;;;5004847;28;20032;-79
2023/03/06 00:41:07;;;;;;;5.07;2.95;;;3.60;73.60;;;;;;5013234;28;20041;-79
2023/03/06 00:43:33;;;;;;;9.05;3.65;;;3.60;73.60;;;;;;5021281;28;20056;-80
2023/03/06 00:45:58;;;;;;;6.50;3.22;;;3.50;73.60;;;;;;5032622;28;20053;-80
2023/03/06 00:48:24;;;;;;;6.38;3.10;;;3.50;73.60;;;;;;5013064;28;20041;-78
2023/03/06 00:50:49;;;;;;;7.00;3.03;;;3.60;73.80;;;;;;5014432;28;20072;-77
2023/03/06 00:53:15;;;;;;;6.72;3.38;;;3.50;73.80;;;;;;5032658;28;20061;-79
2023/03/06 00:55:44;;;;;;;7.82;3.55;;;3.60;73.80;;;;;;5030422;28;20045;-78
2023/03/06 00:58:10;;;;;;;11.02;4.15;;;3.50;73.80;;;;;;5021685;28;20037;-77
2023/03/06 01:00:35;;;;;;;6.10;3.30;;;3.50;73.80;;;;;;5031033;28;20431;-80
2023/03/06 01:03:01;;;;;;;7.88;3.72;;;3.50;73.90;;;;;;5010936;28;20467;-79
2023/03/06 01:05:26;;;;;;;7.28;3.75;;;3.50;73.90;;;;;;5000574;28;20037;-76
2023/03/06 01:07:52;;;;;;;8.82;3.42;;;3.50;74.00;;;;;;5001833;28;20044;-79
2023/03/06 01:10:18;;;;;;;6.43;4.10;;;3.50;74.10;;;;;;4995790;28;20064;-77
2023/03/06 01:12:44;;;;;;;5.80;3.53;;;3.50;74.10;;;;;;4992506;28;20059;-78
2023/03/06 01:15:09;;;;;;;8.38;3.45;;;3.50;74.10;;;;;;4994428;28;20096;-78
2023/03/06 01:17:35;;;;;;;8.32;4.53;;;3.50;74.10;;;;;;5014018;28;20045;-78
2023/03/06 01:20:00;;;;;;;10.07;3.22;;;3.50;74.20;;;;;;4986148;28;20037;-78
2023/03/06 01:22:26;;;;;;;10.10;4.30;;;3.50;74.20;;;;;;4997657;28;20115;-79
2023/03/06 01:24:51;;;;;;;5.65;3.10;;;3.50;74.20;;;;;;5012672;28;20048;-78
2023/03/06 01:27:17;;;;;;;7.15;3.17;;;3.40;74.20;;;;;;5012201;28;20404;-79
2023/03/06 01:29:42;;;;;;;6.90;3.47;;;3.40;74.20;;;;;;5015220;28;20062;-79
2023/03/06 01:32:08;;;;;;;5.15;2.80;;;3.40;74.20;;;;;;5010274;28;20071;-80
2023/03/06 01:34:33;;;;;;;6.45;3.13;;;3.40;74.20;;;;;;5023049;28;20045;-78
2023/03/06 01:36:59;;;;;;;8.05;3.60;;;3.40;74.20;;;;;;5029572;28;20070;-77
2023/03/06 01:39:25;;;;;;;6.53;3.35;;;3.40;74.20;;;;;;4970789;28;20038;-80
2023/03/06 01:41:50;;;;;;;6.05;3.20;;;3.40;74.30;;;;;;4999130;28;21028;-79
2023/03/06 01:44:16;;;;;;;6.57;3.55;;;3.30;74.20;;;;;;5050256;28;20119;-79
2023/03/06 01:46:45;;;;;;;6.00;3.13;;;3.40;74.30;;;;;;5050658;28;20123;-79
2023/03/06 01:49:23;;;;;;;4.05;2.90;;;3.40;74.30;;;;;;4986790;28;20037;-80
2023/03/06 01:51:54;;;;;;;6.18;3.58;;;3.30;74.30;;;;;;5039344;28;20037;-79
2023/03/06 01:54:30;;;;;;;7.18;3.47;;;3.30;74.40;;;;;;5029189;28;20029;-79
2023/03/06 01:56:58;;;;;;;8.48;3.38;;;3.30;74.40;;;;;;5034370;28;20045;-79
2023/03/06 01:59:25;;;;;;;5.78;3.30;;;3.30;74.30;;;;;;5010892;28;20041;-79
2023/03/06 02:01:51;;;;;;;23.98;10.40;;;3.30;74.30;;;;;;5001059;28;20176;-79
2023/03/06 02:04:16;;;;;;;43.22;18.38;;;3.30;74.40;;;;;;5025247;28;25935;-78
2023/03/06 02:06:42;;;;;;;26.25;10.73;;;3.30;74.30;;;;;;5031551;28;20048;-78
2023/03/06 02:09:08;;;;;;;21.40;9.73;;;3.30;74.40;;;;;;5003694;28;20110;-81
2023/03/06 02:11:33;;;;;;;12.70;5.38;;;3.30;74.50;;;;;;5005720;28;20045;-79
2023/03/06 02:13:59;;;;;;;10.20;4.90;;;3.30;74.40;;;;;;5033466;28;20135;-79
2023/03/06 02:16:26;;;;;;;8.02;4.60;;;3.30;74.40;;;;;;5031607;28;20116;-79
2023/03/06 02:18:52;;;;;;;10.75;3.25;;;3.30;74.40;;;;;;5030787;28;20127;-81
2023/03/06 02:21:26;;;;;;;8.13;3.90;;;3.30;74.40;;;;;;5017073;28;20093;-81
2023/03/06 02:24:18;;;;;;;7.03;3.50;;;3.30;74.50;;;;;;5018312;28;20043;-79
2023/03/06 02:26:44;;;;;;;7.28;3.83;;;3.30;74.60;;;;;;5054243;28;20776;-80
2023/03/06 02:29:09;;;;;;;9.00;3.88;;;3.30;74.50;;;;;;5011719;28;20114;-79
2023/03/06 02:31:35;;;;;;;8.43;4.03;;;3.30;74.60;;;;;;4996645;28;20139;-79
2023/03/06 02:34:14;;;;;;;8.65;4.03;;;3.30;74.60;;;;;;5015945;28;20064;-79
2023/03/06 02:36:41;;;;;;;5.53;3.70;;;3.30;74.80;;;;;;5020068;28;20041;-80
2023/03/06 02:39:08;;;;;;;7.43;4.05;;;3.30;74.80;;;;;;5021768;28;20029;-79
2023/03/06 02:41:33;;;;;;;6.70;3.83;;;3.30;74.80;;;;;;5015655;28;20040;-78
2023/03/06 02:43:59;;;;;;;7.70;3.47;;;3.30;74.80;;;;;;5005361;28;20060;-78
2023/03/06 02:46:24;;;;;;;5.95;3.38;;;3.30;74.80;;;;;;5030086;28;20121;-79
2023/03/06 02:48:50;;;;;;;7.13;3.63;;;3.20;74.70;;;;;;4998389;28;20735;-80
2023/03/06 02:51:15;;;;;;;7.07;3.88;;;3.20;74.80;;;;;;5014112;28;20133;-80
2023/03/06 02:53:41;;;;;;;6.68;3.75;;;3.20;74.80;;;;;;5024590;28;20470;-80
2023/03/06 02:56:07;;;;;;;8.30;3.90;;;3.20;74.80;;;;;;5027264;28;20052;-79
2023/03/06 02:58:32;;;;;;;6.78;3.50;;;3.20;74.80;;;;;;5025891;28;20040;-79
2023/03/06 03:00:58;;;;;;;5.13;3.40;;;3.20;74.90;;;;;;5035086;28;20051;-81
2023/03/06 03:03:23;;;;;;;7.88;3.63;;;3.20;74.90;;;;;;5023348;28;20441;-79
2023/03/06 03:05:49;;;;;;;7.57;3.30;;;3.20;75.00;;;;;;5020995;28;20036;-78
2023/03/06 03:08:14;;;;;;;7.45;3.42;;;3.20;75.00;;;;;;5009468;28;20725;-80
2023/03/06 03:10:40;;;;;;;7.40;3.58;;;3.20;75.00;;;;;;5016096;28;20846;-79
2023/03/06 03:13:05;;;;;;;7.03;2.75;;;3.20;75.00;;;;;;5021944;28;20036;-80
2023/03/06 03:15:31;;;;;;;7.32;3.90;;;3.20;75.10;;;;;;5002670;28;21259;-77
2023/03/06 03:17:57;;;;;;;5.82;3.78;;;3.10;75.00;;;;;;5031731;28;20037;-79
2023/03/06 03:20:22;;;;;;;4.80;3.22;;;3.20;75.20;;;;;;5016290;28;20348;-80
2023/03/06 03:22:52;;;;;;;7.80;3.53;;;3.10;75.10;;;;;;5023329;28;20515;-79
2023/03/06 03:25:18;;;;;;;6.32;3.67;;;3.10;75.10;;;;;;5015245;28;20037;-79
2023/03/06 03:27:44;;;;;;;8.43;3.78;;;3.10;75.20;;;;;;4999249;28;20042;-78
2023/03/06 03:30:10;;;;;;;7.15;3.50;;;3.10;75.20;;;;;;5030743;28;20040;-79
2023/03/06 03:32:35;;;;;;;5.35;3.17;;;3.10;75.20;;;;;;5017288;28;20099;-79
2023/03/06 03:35:01;;;;;;;5.35;3.38;;;3.10;75.30;;;;;;5012713;28;20053;-79
2023/03/06 03:37:27;;;;;;;8.70;3.22;;;3.10;75.20;;;;;;4993301;28;20091;-79
2023/03/06 03:39:52;;;;;;;5.93;3.05;;;3.10;75.30;;;;;;5014892;28;20033;-78
2023/03/06 03:42:18;;;;;;;7.35;3.28;;;3.10;75.30;;;;;;4995253;28;20065;-80
2023/03/06 03:44:43;;;;;;;6.00;3.40;;;3.10;75.40;;;;;;5001188;28;20033;-78
2023/03/06 03:47:09;;;;;;;6.60;3.60;;;3.10;75.40;;;;;;5002625;28;20048;-78
2023/03/06 03:49:34;;;;;;;6.03;3.75;;;3.10;75.40;;;;;;5045741;28;20041;-78
2023/03/06 03:52:00;;;;;;;7.38;3.45;;;3.10;75.50;;;;;;5030947;28;20043;-78
2023/03/06 03:54:25;;;;;;;6.07;3.00;;;3.10;75.50;;;;;;5053860;28;20037;-78
2023/03/06 03:56:51;;;;;;;6.32;3.47;;;3.10;75.50;;;;;;5036350;28;20040;-78
2023/03/06 03:59:17;;;;;;;6.45;3.42;;;3.10;75.60;;;;;;5029910;28;20048;-78
2023/03/06 04:01:44;;;;;;;5.13;3.30;;;3.10;75.60;;;;;;5018918;28;20040;-79
2023/03/06 04:04:10;;;;;;;8.63;3.10;;;3.10;75.60;;;;;;5016422;28;20068;-78
2023/03/06 04:06:35;;;;;;;5.10;3.53;;;3.10;75.70;;;;;;5030780;28;20120;-80
2023/03/06 04:09:01;;;;;;;6.78;4.00;;;3.10;75.70;;;;;;5034746;28;20115;-79
2023/03/06 04:11:29;;;;;;;4.93;3.47;;;3.10;75.70;;;;;;5014121;28;20045;-80
2023/03/06 04:13:54;;;;;;;7.90;3.80;;;3.10;75.70;;;;;;5029826;28;20044;-79
2023/03/06 04:16:20;;;;;;;7.32;3.65;;;3.10;75.80;;;;;;5015393;28;20488;-79
2023/03/06 04:18:45;;;;;;;7.00;3.88;;;3.10;76.60;;;;;;5039079;28;20064;-80
2023/03/06 04:21:10;;;;;;;9.18;3.70;;;3.10;75.80;;;;;;4998715;28;20041;-77
2023/03/06 04:23:36;;;;;;;7.63;3.03;;;3.10;75.80;;;;;;5028910;28;20033;-79
2023/03/06 04:26:02;;;;;;;7.38;3.92;;;3.10;75.80;;;;;;5001252;28;20041;-78
2023/03/06 04:28:27;;;;;;;7.80;3.50;;;3.10;75.90;;;;;;5034079;28;20781;-81
2023/03/06 04:30:53;;;;;;;8.45;3.88;;;3.10;76.00;;;;;;5018093;28;20048;-79
2023/03/06 04:33:18;;;;;;;9.10;4.65;;;3.00;75.90;;;;;;5006437;28;20598;-77
2023/03/06 04:35:44;;;;;;;8.15;4.57;;;3.10;76.00;;;;;;5015278;28;20046;-77
2023/03/06 04:38:09;;;;;;;6.80;3.40;;;3.00;75.90;;;;;;5010813;28;20036;-80
2023/03/06 04:40:35;;;;;;;4.43;3.30;;;3.00;75.90;;;;;;5010428;28;20064;-80
2023/03/06 04:43:01;;;;;;;6.95;3.42;;;3.00;75.90;;;;;;5015972;28;20049;-79
2023/03/06 04:45:27;;;;;;;8.30;3.58;;;3.00;75.80;;;;;;4980219;28;20416;-79
2023/03/06 04:47:53;;;;;;;8.95;4.45;;;3.00;75.80;;;;;;5013266;28;20124;-79
2023/03/06 04:50:19;;;;;;;5.18;3.42;;;3.00;75.90;;;;;;5005580;28;20059;-79
2023/03/06 04:52:44;;;;;;;7.35;3.35;;;3.00;75.90;;;;;;4999577;28;20041;-79
2023/03/06 04:55:11;;;;;;;8.27;5.05;;;3.00;75.90;;;;;;5027833;28;20047;-78
2023/03/06 04:57:37;;;;;;;5.13;3.17;;;3.00;75.90;;;;;;4999456;28;20108;-78
2023/03/06 05:00:04;;;;;;;5.65;3.88;;;3.00;75.90;;;;;;5009646;28;20033;-80
2023/03/06 05:02:30;;;;;;;10.63;3.42;;;3.00;75.90;;;;;;5010314;28;20041;-76
2023/03/06 05:04:56;;;;;;;7.55;3.95;;;3.00;75.90;;;;;;5031885;28;20103;-79
2023/03/06 05:07:21;;;;;;;6.47;3.42;;;3.00;75.90;;;;;;5008903;28;20029;-79
2023/03/06 05:09:47;;;;;;;6.95;3.83;;;3.00;75.90;;;;;;5031403;28;20033;-80
2023/03/06 05:12:12;;;;;;;8.15;3.75;;;3.00;75.90;;;;;;5011803;28;20032;-76
2023/03/06 05:14:38;;;;;;;6.20;3.47;;;3.00;75.90;;;;;;5016506;28;20061;-79
2023/03/06 05:17:03;;;;;;;7.07;3.97;;;3.00;75.90;;;;;;5023869;28;20037;-81
2023/03/06 05:19:29;;;;;;;6.28;3.47;;;3.10;75.90;;;;;;5011014;28;20048;-78
2023/03/06 05:21:54;;;;;;;8.23;3.80;;;3.00;76.70;;;;;;5005065;28;20684;-78
2023/03/06 05:24:20;;;;;;;7.95;3.58;;;3.10;76.00;;;;;;5041167;28;20036;-80
2023/03/06 05:26:45;;;;;;;5.28;3.20;;;3.10;76.00;;;;;;5025473;28;20527;-82
2023/03/06 05:29:11;;;;;;;6.85;3.75;;;3.10;76.00;;;;;;5028137;28;20492;-78
2023/03/06 05:31:36;;;;;;;5.38;3.75;;;3.10;76.00;;;;;;5016419;28;20039;-79
2023/03/06 05:34:02;;;;;;;9.57;3.63;;;3.10;76.00;;;;;;5006290;28;20052;-80
2023/03/06 05:36:27;;;;;;;7.03;3.80;;;3.10;76.00;;;;;;4979392;28;20062;-78
2023/03/06 05:38:53;;;;;;;5.63;3.58;;;3.10;76.10;;;;;;5006508;28;20795;-78
2023/03/06 05:41:18;;;;;;;7.90;4.50;;;3.00;76.00;;;;;;4992998;28;20033;-80
2023/03/06 05:43:44;;;;;;;6.50;4.10;;;3.10;76.10;;;;;;4989670;28;20095;-79
2023/03/06 05:46:09;;;;;;;7.78;4.22;;;3.10;76.10;;;;;;5006898;28;20796;-79
2023/03/06 05:48:36;;;;;;;7.85;4.72;;;3.10;76.20;;;;;;4992087;28;20037;-80
2023/03/06 05:51:02;;;;;;;7.43;4.10;;;3.10;76.20;;;;;;5008663;28;20045;-81
2023/03/06 05:53:28;;;;;;;7.85;3.97;;;3.10;76.30;;;;;;4993526;28;20033;-78
2023/03/06 05:56:04;;;;;;;6.90;3.97;;;3.10;76.30;;;;;;5003498;28;20107;-78
2023/03/06 05:58:30;;;;;;;8.35;4.15;;;3.00;76.40;;;;;;4996904;28;20153;-77
2023/03/06 06:00:55;;;;;;;8.10;4.30;;;3.00;76.30;;;;;;4979605;28;20042;-81
2023/03/06 06:03:21;;;;;;;7.47;4.00;;;3.10;76.40;;;;;;4998731;28;20037;-79
2023/03/06 06:05:46;;;;;;;5.55;3.67;;;3.00;76.40;;;;;;5000425;28;20040;-78
2023/03/06 06:08:12;;;;;;;5.82;3.85;;;3.10;76.40;;;;;;5006885;28;20041;-78
2023/03/06 06:10:38;;;;;;;6.50;3.72;;;3.00;76.40;;;;;;5006421;28;20041;-81
2023/03/06 06:13:04;;;;;;;8.68;4.32;;;3.10;76.50;;;;;;5009650;28;20054;-80
2023/03/06 06:15:29;;;;;;;8.30;4.10;;;3.00;76.50;;;;;;5009964;28;20038;-79
2023/03/06 06:17:55;;;;;;;8.45;3.85;;;3.00;76.50;;;;;;5016426;28;20128;-79
2023/03/06 06:20:21;;;;;;;9.35;4.95;;;3.00;76.50;;;;;;5026745;28;20570;-78
2023/03/06 06:22:46;;;;;;;7.20;4.03;;;3.00;76.50;;;;;;4994920;28;20043;-80
2023/03/06 06:25:12;;;;;;;9.27;4.80;;;3.00;76.60;;;;;;5027385;28;20060;-82
2023/03/06 06:27:37;;;;;;;10.15;5.15;;;3.00;76.60;;;;;;5013516;28;20030;-79
2023/03/06 06:30:04;;;;;;;7.72;4.70;;;3.00;76.60;;;;;;5028323;28;20385;-79
2023/03/06 06:32:29;;;;;;;8.60;4.90;;;3.10;76.80;;;;;;5014161;28;20116;-78
2023/03/06 06:34:55;;;;;;;11.73;5.63;;;3.10;76.80;;;;;;5028426;28;20120;-78
2023/03/06 06:37:23;;;;;;;7.68;4.78;;;3.10;76.80;;;;;;5025415;28;20613;-77
2023/03/06 06:39:49;;;;;;;7.18;4.13;;;3.00;76.80;;;;;;5027129;28;20037;-77
2023/03/06 06:42:15;;;;;;;9.52;4.47;;;3.10;76.90;;;;;;5028684;28;20040;-80
2023/03/06 06:44:40;;;;;;;10.15;5.55;;;3.10;76.90;;;;;;5011683;28;20033;-81
2023/03/06 06:47:06;;;;;;;9.75;5.38;;;3.10;76.90;;;;;;5013638;28;20094;-79
2023/03/06 06:49:31;;;;;;;9.90;4.82;;;3.10;76.90;;;;;;5011961;28;20041;-79
2023/03/06 06:51:57;;;;;;;9.45;5.50;;;3.10;76.90;;;;;;5024021;28;20033;-80
2023/03/06 06:54:22;;;;;;;11.10;6.03;;;3.10;76.90;;;;;;5030140;28;20110;-79
2023/03/06 06:56:48;;;;;;;17.08;6.88;;;3.10;77.00;;;;;;5041666;28;20404;-79
2023/03/06 06:59:14;;;;;;;9.85;5.32;;;3.10;77.10;;;;;;5028255;28;20072;-79
2023/03/06 07:01:39;;;;;;;13.00;6.22;;;3.20;77.20;;;;;;5022561;28;20072;-81
2023/03/06 07:04:04;;;;;;;17.45;8.48;;;3.20;77.20;;;;;;5028577;28;20056;-78
2023/03/06 07:06:30;;;;;;;13.00;6.95;;;3.20;77.20;;;;;;5024699;28;20124;-80
2023/03/06 07:08:56;;;;;;;13.77;6.85;;;3.20;77.20;;;;;;5028728;28;20041;-78
2023/03/06 07:11:21;;;;;;;12.45;6.82;;;3.20;77.20;;;;;;5027077;28;20043;-81
2023/03/06 07:13:47;;;;;;;11.55;5.93;;;3.20;77.30;;;;;;5001462;28;20033;-79
2023/03/06 07:16:13;;;;;;;15.63;7.68;;;3.20;77.30;;;;;;4999682;28;20053;-78
2023/03/06 07:18:38;;;;;;;16.75;9.27;;;3.30;77.50;;;;;;5005571;28;20183;-80
2023/03/06 07:21:04;;;;;;;15.25;7.95;;;3.30;77.50;;;;;;5006804;28;20049;-79
2023/03/06 07:23:30;;;;;;;16.13;8.15;;;3.30;77.60;;;;;;5016228;28;20318;-79
2023/03/06 07:25:56;;;;;;;9.98;5.63;;;3.30;77.60;;;;;;4993796;28;20042;-80
2023/03/06 07:28:21;;;;;;;14.75;7.80;;;3.30;77.70;;;;;;5010975;28;20041;-79
2023/03/06 07:30:47;;;;;;;18.27;9.32;;;3.40;77.80;;;;;;4993054;28;20451;-78
2023/03/06 07:33:13;;;;;;;17.70;9.23;;;3.40;77.90;;;;;;4992271;28;20095;-80
2023/03/06 07:35:40;;;;;;;13.32;7.00;;;3.40;78.00;;;;;;4994346;28;20037;-79
2023/03/06 07:38:05;;;;;;;12.55;6.68;;;3.40;78.20;;;;;;5029085;28;20049;-79
2023/03/06 07:40:31;;;;;;;11.65;6.20;;;3.40;78.10;;;;;;5029696;28;20030;-77
2023/03/06 07:42:56;;;;;;;12.60;5.38;;;3.40;78.20;;;;;;5007956;28;20033;-80
2023/03/06 07:45:22;;;;;;;11.68;5.72;;;3.40;78.20;;;;;;5013221;28;20040;-79
2023/03/06 07:47:51;;;;;;;11.85;6.03;;;3.40;78.30;;;;;;5000450;28;20630;-78
2023/03/06 07:50:17;;;;;;;12.45;6.55;;;3.40;78.50;;;;;;5012439;28;20123;-81
2023/03/06 07:52:42;;;;;;;13.10;7.40;;;3.40;78.50;;;;;;5013871;28;20121;-81
2023/03/06 07:55:08;;;;;;;10.50;5.82;;;3.50;78.60;;;;;;5038889;28;20061;-78
2023/03/06 07:57:35;;;;;;;11.10;6.18;;;3.50;78.80;;;;;;5015731;28;20434;-81
2023/03/06 08:00:00;;;;;;;15.82;7.90;;;3.50;78.80;;;;;;5022357;28;20095;-78
2023/03/06 08:02:26;;;;;;;13.45;7.28;;;3.50;78.90;;;;;;5031666;28;20041;-79
2023/03/06 08:04:54;;;;;;;14.18;7.78;;;3.50;78.90;;;;;;5022055;28;20112;-79
2023/03/06 08:07:20;;;;;;;24.38;12.55;;;3.50;79.10;;;;;;5019134;28;20033;-79
2023/03/06 08:09:45;;;;;;;16.73;8.82;;;3.50;79.00;;;;;;5036434;28;20570;-79
2023/03/06 08:12:11;;;;;;;16.08;8.30;;;3.60;79.10;;;;;;5010891;28;20505;-79
2023/03/06 08:14:36;;;;;;;14.27;7.65;;;3.60;79.10;;;;;;5014367;28;20763;-79
2023/03/06 08:17:02;;;;;;;14.23;7.95;;;3.60;79.10;;;;;;5018336;28;20045;-79
2023/03/06 08:19:28;;;;;;;16.38;8.05;;;3.60;79.20;;;;;;5047784;28;20042;-79
2023/03/06 08:21:53;;;;;;;13.70;8.00;;;3.60;79.20;;;;;;5032294;28;20041;-79
2023/03/06 08:24:19;;;;;;;13.60;6.65;;;3.70;79.20;;;;;;5015080;28;20037;-80
2023/03/06 08:26:44;;;;;;;12.30;6.78;;;3.70;79.30;;;;;;4999496;28;20033;-77
2023/03/06 08:29:10;;;;;;;14.55;6.45;;;3.70;79.30;;;;;;5013731;28;20037;-80
2023/03/06 08:31:37;;;;;;;12.25;6.63;;;3.70;79.40;;;;;;5015288;28;20045;-78
2023/03/06 08:34:04;;;;;;;11.70;6.55;;;3.70;79.30;;;;;;5030537;28;20048;-78
2023/03/06 08:36:30;;;;;;;15.65;7.78;;;3.70;79.40;;;;;;5011830;28;20047;-79
2023/03/06 08:38:56;;;;;;;17.75;9.80;;;3.80;79.40;;;;;;4996553;28;20037;-80
2023/03/06 08:41:22;;;;;;;14.48;7.40;;;3.90;79.50;;;;;;5011639;28;20039;-79
2023/03/06 08:43:47;;;;;;;12.18;7.03;;;3.90;79.60;;;;;;5000718;28;20526;-79
2023/03/06 08:46:13;;;;;;;12.90;7.43;;;4.00;79.60;;;;;;5010006;28;20041;-79
2023/03/06 08:48:38;;;;;;;13.98;7.60;;;4.00;79.50;;;;;;5011182;28;20067;-81
2023/03/06 08:51:04;;;;;;;18.45;8.60;;;4.00;79.50;;;;;;5015237;28;20710;-78
2023/03/06 08:53:30;;;;;;;19.77;10.30;;;4.10;79.50;;;;;;5032637;28;20574;-81
2023/03/06 08:55:55;;;;;;;15.82;8.40;;;4.10;79.50;;;;;;5026464;28;20219;-80
2023/03/06 08:58:21;;;;;;;15.50;9.20;;;4.20;79.50;;;;;;5016590;28;20041;-82
2023/03/06 09:00:47;;;;;;;16.65;9.38;;;4.20;79.50;;;;;;5009976;28;20423;-78
2023/03/06 09:03:13;;;;;;;23.92;11.52;;;4.20;79.50;;;;;;5030773;28;20678;-79
2023/03/06 09:05:39;;;;;;;19.52;9.50;;;4.20;79.40;;;;;;4982122;28;20041;-77
2023/03/06 09:08:05;;;;;;;17.35;8.43;;;4.30;79.40;;;;;;5006483;28;20064;-81
2023/03/06 09:10:30;;;;;;;15.80;8.73;;;4.30;79.40;;;;;;5006767;28;20462;-80
2023/03/06 09:12:56;;;;;;;14.68;7.72;;;4.40;79.40;;;;;;5010307;28;20432;-79
2023/03/06 09:15:22;;;;;;;15.70;8.85;;;4.50;79.40;;;;;;4981049;28;20806;-80
2023/03/06 09:17:47;;;;;;;13.85;7.47;;;4.50;79.40;;;;;;4992093;28;20696;-78
2023/03/06 09:20:13;;;;;;;23.67;9.75;;;4.60;79.30;;;;;;5006692;28;20042;-80
2023/03/06 09:22:41;;;;;;;16.20;9.18;;;4.60;79.30;;;;;;4995541;28;20041;-78
2023/03/06 09:25:07;;;;;;;17.75;9.15;;;4.70;79.40;;;;;;4993330;28;20153;-77
2023/03/06 09:27:32;;;;;;;17.58;9.32;;;4.70;79.10;;;;;;4994332;28;20129;-80
2023/03/06 09:29:58;;;;;;;29.20;13.35;;;4.80;79.10;;;;;;4995725;28;20054;-82
2023/03/06 09:32:24;;;;;;;17.25;8.95;;;4.80;79.00;;;;;;5005041;28;20041;-79
2023/03/06 09:34:49;;;;;;;16.88;9.00;;;4.80;78.90;;;;;;4989683;28;20058;-81
2023/03/06 09:37:15;;;;;;;13.43;7.90;;;4.90;79.00;;;;;;4986878;28;20053;-79
2023/03/06 09:39:41;;;;;;;14.85;7.35;;;5.00;79.00;;;;;;5008291;28;20045;-79
2023/03/06 09:42:07;;;;;;;11.85;7.32;;;5.00;78.90;;;;;;5007204;28;20465;-79
2023/03/06 09:44:34;;;;;;;14.93;8.30;;;5.10;78.80;;;;;;5009385;28;20044;-75
2023/03/06 09:47:37;;;;;;;12.38;7.40;;;5.20;78.80;;;;;;5009298;28;20060;-80
2023/03/06 09:50:12;;;;;;;12.38;6.68;;;5.20;78.70;;;;;;4994168;28;20476;-79
2023/03/06 09:52:53;;;;;;;10.80;6.57;;;5.30;78.40;;;;;;4989052;28;22626;-80
2023/03/06 09:55:26;;;;;;;8.60;5.72;;;5.30;78.30;;;;;;4983463;28;20133;-79
2023/03/06 09:58:09;;;;;;;13.63;5.93;;;5.40;78.10;;;;;;4973344;28;20069;-79
2023/03/06 10:00:40;;;;;;;12.73;6.75;;;5.40;78.00;;;;;;4969614;28;20489;-80
2023/03/06 10:03:32;;;;;;;10.40;6.72;;;5.40;78.00;;;;;;4988804;28;20038;-79
2023/03/06 10:06:02;;;;;;;13.13;6.20;;;5.50;77.90;;;;;;5000138;28;20452;-77
2023/03/06 10:08:47;;;;;;;9.63;6.60;;;5.50;77.70;;;;;;5011112;28;20026;-79
2023/03/06 10:11:17;;;;;;;12.40;6.75;;;5.60;77.60;;;;;;5008530;28;20041;-78
2023/03/06 10:13:45;;;;;;;9.32;5.78;;;5.60;77.50;;;;;;4973779;28;20043;-79
2023/03/06 10:16:25;;;;;;;12.02;5.95;;;5.70;77.40;;;;;;4966118;28;20050;-79
2023/03/06 10:18:50;;;;;;;12.38;6.60;;;5.80;77.30;;;;;;5007260;28;20041;-80
2023/03/06 10:21:42;;;;;;;10.73;6.20;;;5.80;77.20;;;;;;5011804;28;20048;-81
2023/03/06 10:24:31;;;;;;;13.18;6.75;;;5.80;77.00;;;;;;4976661;28;20046;-81
2023/03/06 10:27:02;;;;;;;12.80;6.63;;;5.80;76.80;;;;;;5004903;28;20913;-79
2023/03/06 10:29:51;;;;;;;13.43;7.28;;;5.90;76.80;;;;;;5009767;28;20044;-81
2023/03/06 10:32:20;;;;;;;22.88;10.05;;;5.90;76.50;;;;;;4977505;28;20751;-79
2023/03/06 10:34:45;;;;;;;10.73;6.95;;;5.80;76.50;;;;;;5022634;28;20072;-82
2023/03/06 10:37:18;;;;;;;11.40;6.07;;;5.90;76.50;;;;;;5013938;28;20120;-78
2023/03/06 10:39:44;;;;;;;15.32;7.70;;;5.90;76.30;;;;;;4994939;28;20033;-79
2023/03/06 10:42:09;;;;;;;12.40;7.20;;;5.90;76.20;;;;;;5014874;28;20080;-79
2023/03/06 10:44:35;;;;;;;14.82;7.70;;;5.90;76.20;;;;;;5015330;28;20492;-79
2023/03/06 10:47:04;;;;;;;12.48;7.10;;;6.00;76.20;;;;;;5003538;28;20068;-80
2023/03/06 10:49:34;;;;;;;9.95;6.47;;;6.00;76.10;;;;;;4992399;28;20038;-81
2023/03/06 10:52:12;;;;;;;12.77;6.90;;;6.00;75.90;;;;;;4980290;28;20048;-79
2023/03/06 10:54:39;;;;;;;12.63;7.18;;;6.00;75.80;;;;;;5002087;28;20041;-79
2023/03/06 10:57:29;;;;;;;10.52;6.85;;;6.00;75.80;;;;;;4997985;28;20471;-79
2023/03/06 11:00:04;;;;;;;12.23;6.97;;;6.00;75.60;;;;;;5023346;28;20088;-81
2023/03/06 11:02:39;;;;;;;12.90;7.43;;;6.10;75.50;;;;;;5038344;28;20034;-78
2023/03/06 11:05:05;;;;;;;15.75;8.07;;;6.00;75.40;;;;;;5017092;28;20464;-80
2023/03/06 11:07:32;;;;;;;11.85;6.68;;;6.00;75.40;;;;;;5011112;28;20045;-82
2023/03/06 11:10:10;;;;;;;10.82;6.18;;;5.90;75.50;;;;;;5011601;28;20563;-81
2023/03/06 11:12:39;;;;;;;10.38;6.05;;;5.90;75.60;;;;;;4997976;28;20124;-81
2023/03/06 11:15:16;;;;;;;11.55;6.82;;;5.90;75.70;;;;;;5030049;28;20052;-82
2023/03/06 11:18:03;;;;;;;17.13;7.63;;;5.80;75.90;;;;;;5001941;28;20099;-81
2023/03/06 11:20:43;;;;;;;13.80;7.80;;;5.80;75.80;;;;;;4996395;28;20492;-78
2023/03/06 11:23:20;;;;;;;11.65;6.57;;;5.80;76.00;;;;;;4997932;28;20042;-79
2023/03/06 11:26:10;;;;;;;14.77;7.00;;;5.70;76.10;;;;;;5016398;28;20057;-81
2023/03/06 11:28:39;;;;;;;11.30;6.38;;;5.70;76.20;;;;;;5012018;28;20036;-81
2023/03/06 11:31:06;;;;;;;9.13;5.47;;;5.70;76.20;;;;;;5028204;28;20050;-79
2023/03/06 11:33:35;;;;;;;9.32;5.25;;;5.60;76.30;;;;;;5025976;28;20052;-81
2023/03/06 11:36:08;;;;;;;6.47;4.20;;;5.50;76.30;;;;;;4996011;28;20050;-78
2023/03/06 11:38:50;;;;;;;9.35;4.65;;;5.40;76.40;;;;;;4969114;28;20042;-77
2023/03/06 11:41:30;;;;;;;5.82;3.78;;;5.30;76.50;;;;;;5015228;28;20049;-76
2023/03/06 11:44:12;;;;;;;6.30;3.63;;;5.20;76.50;;;;;;4981173;28;20041;-80
2023/03/06 11:46:40;;;;;;;6.60;3.88;;;5.10;76.50;;;;;;5004564;28;20116;-79
2023/03/06 11:49:15;;;;;;;8.30;4.15;;;5.00;76.50;;;;;;4985946;28;20149;-80
2023/03/06 11:51:48;;;;;;;7.80;4.22;;;4.90;76.70;;;;;;4981500;28;20121;-78
2023/03/06 11:54:14;;;;;;;5.85;3.80;;;4.90;77.00;;;;;;4996741;28;20080;-79
2023/03/06 11:57:02;;;;;;;8.75;4.93;;;4.90;77.10;;;;;;5011772;28;20124;-80
2023/03/06 11:59:55;;;;;;;7.03;4.45;;;5.00;77.40;;;;;;4999923;28;20041;-78
2023/03/06 12:02:35;;;;;;;6.78;4.30;;;5.10;77.90;;;;;;5012469;28;20516;-78
2023/03/06 12:05:37;;;;;;;8.32;4.07;;;5.20;77.80;;;;;;5000255;28;20049;-78
2023/03/06 12:11:50;;;;;;;4.97;3.80;;;5.60;78.30;;;;;;5006193;28;20098;-81
2023/03/06 12:14:19;;;;;;;;;;;5.80;77.80;;;;;;5003747;28;20037;-81
2023/03/06 12:16:53;;;;;;;7.80;4.60;;;6.00;77.60;;;;;;4985585;28;19921;-80
2023/03/06 12:19:27;;;;;;;9.10;5.15;;;6.30;77.70;;;;;;5016685;28;20041;-78
2023/03/06 12:22:05;;;;;;;8.10;4.63;;;6.50;77.70;;;;;;5010035;28;20049;-80
2023/03/06 12:25:11;;;;;;;9.70;5.38;;;6.60;77.40;;;;;;5011211;28;20103;-79
2023/03/06 12:28:02;;;;;;;10.70;6.10;;;6.70;77.40;;;;;;5006107;28;20531;-80
2023/03/06 12:30:52;;;;;;;10.68;6.82;;;6.70;76.80;;;;;;5005161;28;20609;-81
2023/03/06 12:33:31;;;;;;;9.68;5.93;;;6.70;76.80;;;;;;5001969;28;20053;-79
2023/03/06 12:35:59;;;;;;;9.98;5.50;;;6.70;76.80;;;;;;5019050;28;20036;-80
2023/03/06 12:38:44;;;;;;;9.55;5.60;;;6.70;76.80;;;;;;5034270;28;20037;-81
2023/03/06 12:41:23;;;;;;;8.48;5.15;;;6.70;77.00;;;;;;5035598;28;20143;-81
2023/03/06 12:44:32;;;;;;;9.60;5.38;;;6.70;76.90;;;;;;5019062;28;20726;-81
2023/03/06 12:47:02;;;;;;;10.27;5.20;;;6.70;77.20;;;;;;4960444;28;20043;-80
2023/03/06 12:49:37;;;;;;;9.50;5.65;;;6.90;77.10;;;;;;5028848;28;20049;-81
2023/03/06 12:52:03;;;;;;;8.23;5.25;;;7.00;77.20;;;;;;5019231;28;20036;-80
2023/03/06 12:54:30;;;;;;;11.02;5.88;;;7.30;77.30;;;;;;5020615;28;20091;-81
2023/03/06 12:56:56;;;;;;;9.10;5.55;;;7.50;77.20;;;;;;4990579;28;20056;-82
2023/03/06 12:59:37;;;;;;;9.70;5.85;;;7.60;76.90;;;;;;4999978;28;20039;-80
2023/03/06 13:02:36;;;;;;;8.85;5.45;;;7.70;76.80;;;;;;5035445;28;20042;-81
2023/03/06 13:05:21;;;;;;;9.75;5.25;;;7.70;76.50;;;;;;5029813;28;20049;-81